createdAt,value
2023-04-22T00:00:10.160Z,12.04
2023-04-22T00:02:38.905Z,12.05
2023-04-22T00:05:07.977Z,12.08
2023-04-22T00:07:36.092Z,12.13
2023-04-22T00:10:04.308Z,12.14
2023-04-22T00:12:32.274Z,12.17
2023-04-22T00:15:01.818Z,12.21
2023-04-22T00:17:29.823Z,12.25
2023-04-22T00:19:57.826Z,12.20
2023-04-22T00:22:25.740Z,12.23
2023-04-22T00:24:53.662Z,12.24
2023-04-22T00:27:21.601Z,12.14
2023-04-22T00:29:49.665Z,11.98
2023-04-22T00:32:19.962Z,11.77
2023-04-22T00:34:47.895Z,11.64
2023-04-22T00:37:15.804Z,11.39
2023-04-22T00:39:43.851Z,11.42
2023-04-22T00:42:11.794Z,11.33
2023-04-22T00:44:39.770Z,11.34
2023-04-22T00:47:07.838Z,11.31
2023-04-22T00:49:37.878Z,11.24
2023-04-22T00:52:06.889Z,11.20
2023-04-22T00:54:35.412Z,11.16
2023-04-22T00:57:04.000Z,11.14
2023-04-22T00:59:31.962Z,11.09
2023-04-22T01:01:59.886Z,11.06
2023-04-22T01:04:28.056Z,11.07
2023-04-22T01:06:57.374Z,11.06
2023-04-22T01:09:25.334Z,11.11
2023-04-22T01:11:53.277Z,11.11
2023-04-22T01:14:21.164Z,11.11
2023-04-22T01:16:49.242Z,11.08
2023-04-22T01:19:17.231Z,11.02
2023-04-22T01:21:46.124Z,11.03
2023-04-22T01:24:15.429Z,11.01
2023-04-22T01:26:43.366Z,11.04
2023-04-22T01:29:11.272Z,11.01
2023-04-22T01:31:39.380Z,10.95
2023-04-22T01:34:07.341Z,10.88
2023-04-22T01:36:35.340Z,10.80
2023-04-22T01:39:03.313Z,10.67
2023-04-22T01:41:32.753Z,10.59
2023-04-22T01:44:00.720Z,10.48
2023-04-22T01:46:28.818Z,10.35
2023-04-22T01:48:56.766Z,10.28
2023-04-22T01:51:24.700Z,10.01
2023-04-22T01:53:52.675Z,10.10
2023-04-22T01:56:21.453Z,10.02
2023-04-22T01:58:51.019Z,9.93
2023-04-22T02:01:18.986Z,9.89
2023-04-22T02:03:47.078Z,9.79
2023-04-22T02:06:15.062Z,9.72
2023-04-22T02:08:43.015Z,9.64
2023-04-22T02:11:11.050Z,9.56
2023-04-22T02:13:39.131Z,9.49
2023-04-22T02:16:09.433Z,9.41
2023-04-22T02:18:37.496Z,9.31
2023-04-22T02:21:05.556Z,9.25
2023-04-22T02:23:33.534Z,9.29
2023-04-22T02:26:01.637Z,9.26
2023-04-22T02:28:29.561Z,9.18
2023-04-22T02:30:57.537Z,9.15
2023-04-22T02:33:26.868Z,9.11
2023-04-22T02:35:54.834Z,9.09
2023-04-22T02:38:22.756Z,9.09
2023-04-22T02:40:50.672Z,9.04
2023-04-22T02:43:18.635Z,9.00
2023-04-22T02:45:48.621Z,8.98
2023-04-22T02:48:16.551Z,8.97
2023-04-22T02:50:45.916Z,8.96
2023-04-22T02:53:13.843Z,8.92
2023-04-22T02:55:42.331Z,8.95
2023-04-22T02:58:10.670Z,8.97
2023-04-22T03:00:38.686Z,9.02
2023-04-22T03:03:06.903Z,9.16
2023-04-22T03:05:34.975Z,9.20
2023-04-22T03:08:04.291Z,9.23
2023-04-22T03:10:32.502Z,9.20
2023-04-22T03:13:00.512Z,9.19
2023-04-22T03:15:28.473Z,9.16
2023-04-22T03:17:56.496Z,9.14
2023-04-22T03:20:24.454Z,9.16
2023-04-22T03:22:52.327Z,9.19
2023-04-22T03:25:21.701Z,9.21
2023-04-22T03:27:49.662Z,9.21
2023-04-22T03:30:17.642Z,9.26
2023-04-22T03:32:45.636Z,9.32
2023-04-22T03:35:13.771Z,9.40
2023-04-22T03:37:42.022Z,9.45
2023-04-22T03:40:13.491Z,9.43
2023-04-22T03:42:43.033Z,9.56
2023-04-22T03:45:11.739Z,9.66
2023-04-22T03:47:39.705Z,9.80
2023-04-22T03:50:08.459Z,9.85
2023-04-22T03:52:36.428Z,9.92
2023-04-22T03:55:04.519Z,10.01
2023-04-22T03:57:32.496Z,10.10
2023-04-22T04:00:01.819Z,10.14
2023-04-22T04:02:29.874Z,10.26
2023-04-22T04:04:58.229Z,10.38
2023-04-22T04:07:26.423Z,10.49
2023-04-22T04:09:54.370Z,10.57
2023-04-22T04:12:22.316Z,10.64
2023-04-22T04:14:50.231Z,10.68
2023-04-22T04:17:19.604Z,10.81
2023-04-22T04:19:47.565Z,10.83
2023-04-22T04:22:15.495Z,10.87
2023-04-22T04:24:43.972Z,10.91
2023-04-22T04:27:11.973Z,10.94
2023-04-22T04:29:41.580Z,11.00
2023-04-22T04:32:10.068Z,11.03
2023-04-22T04:34:39.515Z,11.10
2023-04-22T04:37:07.500Z,11.10
2023-04-22T04:39:35.470Z,11.20
2023-04-22T04:42:04.044Z,11.22
2023-04-22T04:44:32.205Z,11.25
2023-04-22T04:47:00.189Z,11.23
2023-04-22T04:49:30.738Z,11.27
2023-04-22T04:52:00.179Z,11.29
2023-04-22T04:54:28.160Z,11.40
2023-04-22T04:56:57.384Z,11.52
2023-04-22T04:59:25.379Z,11.66
2023-04-22T05:01:53.438Z,11.75
2023-04-22T05:04:21.985Z,11.83
2023-04-22T05:06:50.175Z,11.94
2023-04-22T05:09:19.684Z,12.09
2023-04-22T05:11:47.610Z,12.17
2023-04-22T05:14:15.590Z,12.27
2023-04-22T05:16:43.633Z,12.24
2023-04-22T05:19:11.548Z,12.28
2023-04-22T05:21:39.470Z,12.46
2023-04-22T05:24:07.857Z,12.59
2023-04-22T05:26:37.260Z,12.68
2023-04-22T05:29:05.386Z,12.86
2023-04-22T05:31:33.944Z,13.03
2023-04-22T05:34:01.927Z,13.04
2023-04-22T05:36:31.603Z,12.96
2023-04-22T05:38:59.594Z,12.90
2023-04-22T05:41:27.498Z,12.95
2023-04-22T05:43:56.779Z,12.89
2023-04-22T05:46:24.752Z,12.95
2023-04-22T05:48:52.737Z,12.90
2023-04-22T05:51:20.694Z,12.73
2023-04-22T05:53:48.617Z,12.71
2023-04-22T05:56:16.528Z,12.53
2023-04-22T05:58:44.445Z,12.57
2023-04-22T06:01:13.807Z,12.62
2023-04-22T06:03:42.060Z,12.59
2023-04-22T06:06:10.348Z,12.48
2023-04-22T06:08:38.312Z,12.32
2023-04-22T06:11:06.378Z,12.21
2023-04-22T06:13:34.331Z,12.19
2023-04-22T06:16:02.630Z,12.34
2023-04-22T06:18:32.469Z,12.30
2023-04-22T06:21:00.423Z,12.49
2023-04-22T06:23:28.402Z,12.79
2023-04-22T06:25:58.487Z,12.98
2023-04-22T06:28:26.487Z,13.16
2023-04-22T06:30:54.480Z,13.23
2023-04-22T06:33:22.470Z,13.30
2023-04-22T06:35:51.797Z,13.51
2023-04-22T06:38:19.736Z,13.63
2023-04-22T06:40:47.714Z,13.80
2023-04-22T06:43:15.642Z,13.96
2023-04-22T06:45:43.599Z,14.05
2023-04-22T06:48:11.539Z,14.25
2023-04-22T06:50:39.441Z,14.44
2023-04-22T06:53:09.990Z,14.61
2023-04-22T06:55:37.931Z,14.73
2023-04-22T06:58:05.897Z,14.70
2023-04-22T07:00:35.004Z,14.87
2023-04-22T07:03:03.055Z,14.99
2023-04-22T07:05:31.072Z,15.08
2023-04-22T07:07:58.978Z,14.98
2023-04-22T07:10:28.274Z,15.13
2023-04-22T07:12:56.191Z,15.40
2023-04-22T07:15:24.127Z,15.48
2023-04-22T07:17:52.067Z,15.55
2023-04-22T07:20:20.071Z,15.81
2023-04-22T07:22:48.050Z,15.97
2023-04-22T07:25:16.043Z,16.06
2023-04-22T07:27:45.349Z,16.20
2023-04-22T07:30:14.075Z,16.29
2023-04-22T07:32:42.080Z,16.29
2023-04-22T07:35:10.300Z,16.28
2023-04-22T07:37:38.331Z,16.24
2023-04-22T07:40:11.679Z,16.11
2023-04-22T07:42:39.886Z,16.17
2023-04-22T07:45:10.089Z,16.25
2023-04-22T07:47:38.087Z,16.20
2023-04-22T07:50:07.145Z,16.12
2023-04-22T07:52:35.099Z,16.09
2023-04-22T07:55:03.076Z,16.08
2023-04-22T07:57:31.016Z,16.00
2023-04-22T07:59:59.254Z,15.62
2023-04-22T08:02:28.693Z,15.49
2023-04-22T08:04:56.749Z,15.22
2023-04-22T08:09:56.701Z,15.19
2023-04-22T08:12:24.782Z,15.01
2023-04-22T08:14:52.734Z,14.68
2023-04-22T08:17:22.159Z,14.77
2023-04-22T08:19:51.609Z,14.76
2023-04-22T08:22:19.579Z,14.81
2023-04-22T08:24:47.554Z,14.86
2023-04-22T08:27:15.487Z,14.96
2023-04-22T08:29:43.583Z,15.19
2023-04-22T08:32:11.721Z,15.33
2023-04-22T08:34:40.374Z,15.50
2023-04-22T08:37:10.161Z,15.65
2023-04-22T08:39:38.362Z,15.71
2023-04-22T08:42:06.654Z,15.83
2023-04-22T08:44:35.507Z,16.01
2023-04-22T08:47:04.003Z,15.91
2023-04-22T08:49:32.023Z,15.95
2023-04-22T08:52:00.006Z,16.00
2023-04-22T08:54:29.420Z,16.16
2023-04-22T08:56:57.392Z,16.22
2023-04-22T08:59:25.364Z,16.51
2023-04-22T09:01:54.298Z,17.09
2023-04-22T09:04:22.418Z,17.45
2023-04-22T09:06:50.445Z,17.62
2023-04-22T09:09:18.418Z,18.06
2023-04-22T09:11:47.699Z,18.31
2023-04-22T09:14:15.647Z,18.45
2023-04-22T09:16:44.065Z,18.55
2023-04-22T09:19:15.408Z,18.48
2023-04-22T09:21:43.650Z,18.53
2023-04-22T09:24:12.417Z,18.59
2023-04-22T09:26:40.887Z,18.63
2023-04-22T09:29:14.343Z,18.70
2023-04-22T09:31:42.456Z,19.05
2023-04-22T09:34:10.500Z,19.47
2023-04-22T09:36:38.545Z,19.51
2023-04-22T09:39:08.214Z,19.86
2023-04-22T09:41:37.324Z,19.97
2023-04-22T09:44:05.726Z,19.71
2023-04-22T09:46:35.120Z,20.21
2023-04-22T09:49:03.117Z,19.97
2023-04-22T09:51:31.999Z,20.41
2023-04-22T09:54:01.136Z,20.60
2023-04-22T09:56:42.432Z,20.83
2023-04-22T09:59:10.556Z,21.17
2023-04-22T10:01:41.213Z,21.64
2023-04-22T10:04:09.955Z,21.70
2023-04-22T10:06:38.392Z,21.85
2023-04-22T10:09:09.296Z,21.73
2023-04-22T10:11:37.716Z,21.26
2023-04-22T10:14:05.700Z,20.72
2023-04-22T10:16:34.262Z,20.82
2023-04-22T10:19:04.568Z,20.18
2023-04-22T10:21:32.618Z,20.48
2023-04-22T10:24:00.837Z,20.57
2023-04-22T10:26:49.311Z,20.64
2023-04-22T10:29:17.975Z,21.05
2023-04-22T10:31:46.589Z,21.69
2023-04-22T10:34:16.280Z,22.17
2023-04-22T10:36:57.459Z,22.16
2023-04-22T10:39:25.548Z,22.72
2023-04-22T10:41:54.964Z,22.54
2023-04-22T10:44:23.238Z,22.22
2023-04-22T10:46:58.651Z,22.58
2023-04-22T10:49:28.156Z,23.10
2023-04-22T10:51:58.455Z,23.09
2023-04-22T10:54:57.840Z,23.48
2023-04-22T10:57:31.225Z,23.51
2023-04-22T11:00:00.438Z,23.73
2023-04-22T11:02:28.485Z,23.81
2023-04-22T11:05:22.926Z,23.85
2023-04-22T11:07:54.384Z,23.60
2023-04-22T11:10:33.056Z,23.84
2023-04-22T11:13:02.086Z,23.60
2023-04-22T11:15:30.540Z,24.11
2023-04-22T11:17:58.611Z,24.01
2023-04-22T11:20:28.555Z,23.17
2023-04-22T11:22:57.074Z,23.13
2023-04-22T11:25:25.373Z,23.04
2023-04-22T11:27:53.507Z,22.44
2023-04-22T11:30:21.977Z,21.83
2023-04-22T11:32:50.495Z,21.87
2023-04-22T11:35:20.159Z,21.13
2023-04-22T11:37:50.223Z,21.65
2023-04-22T11:40:29.057Z,21.68
2023-04-22T11:42:58.510Z,21.20
2023-04-22T11:45:26.742Z,20.37
2023-04-22T11:47:55.377Z,19.95
2023-04-22T11:50:24.594Z,19.97
2023-04-22T11:52:54.627Z,19.97
2023-04-22T11:55:23.836Z,19.88
2023-04-22T11:57:56.422Z,19.80
2023-04-22T12:00:24.820Z,19.50
2023-04-22T12:03:00.412Z,19.51
2023-04-22T12:05:39.277Z,19.15
2023-04-22T12:08:12.055Z,18.50
2023-04-22T12:10:43.963Z,18.12
2023-04-22T12:13:12.641Z,17.99
2023-04-22T12:15:42.334Z,17.85
2023-04-22T12:18:10.497Z,17.94
2023-04-22T12:20:39.903Z,17.93
2023-04-22T12:23:14.591Z,17.72
2023-04-22T12:25:43.077Z,17.80
2023-04-22T12:28:11.439Z,17.99
2023-04-22T12:30:39.377Z,18.21
2023-04-22T12:33:07.579Z,18.35
2023-04-22T12:35:35.656Z,18.40
2023-04-22T12:38:03.630Z,18.37
2023-04-22T12:40:33.004Z,18.43
2023-04-22T12:43:01.229Z,18.69
2023-04-22T12:45:29.214Z,18.95
2023-04-22T12:47:58.029Z,19.28
2023-04-22T12:50:26.044Z,19.63
2023-04-22T12:52:54.009Z,19.93
2023-04-22T12:55:22.280Z,20.16
2023-04-22T12:57:52.057Z,20.19
2023-04-22T13:00:20.051Z,20.09
2023-04-22T13:02:48.937Z,20.39
2023-04-22T13:05:17.115Z,20.60
2023-04-22T13:07:46.908Z,20.78
2023-04-22T13:10:22.915Z,20.89
2023-04-22T13:12:52.642Z,20.99
2023-04-22T13:15:21.497Z,20.89
2023-04-22T13:17:51.017Z,20.76
2023-04-22T13:20:19.548Z,20.69
2023-04-22T13:22:48.138Z,20.48
2023-04-22T13:25:16.053Z,20.30
2023-04-22T13:27:44.009Z,20.46
2023-04-22T13:30:14.343Z,20.48
2023-04-22T13:32:42.351Z,20.16
2023-04-22T13:35:11.018Z,20.27
2023-04-22T13:37:39.337Z,19.98
2023-04-22T13:40:08.683Z,20.06
2023-04-22T13:42:36.852Z,20.19
2023-04-22T13:45:05.296Z,20.03
2023-04-22T13:47:34.644Z,20.02
2023-04-22T13:50:03.369Z,20.20
2023-04-22T13:52:31.328Z,20.28
2023-04-22T13:54:59.329Z,20.38
2023-04-22T13:57:27.482Z,20.39
2023-04-22T13:59:55.407Z,20.40
2023-04-22T14:02:23.391Z,20.55
2023-04-22T14:04:52.851Z,20.53
2023-04-22T14:07:20.829Z,20.85
2023-04-22T14:09:48.733Z,20.98
2023-04-22T14:12:16.665Z,20.91
2023-04-22T14:14:44.746Z,20.87
2023-04-22T14:17:12.785Z,20.60
2023-04-22T14:19:41.145Z,20.56
2023-04-22T14:22:10.737Z,20.56
2023-04-22T14:24:38.654Z,20.49
2023-04-22T14:27:06.823Z,20.54
2023-04-22T14:29:34.774Z,20.45
2023-04-22T14:32:02.979Z,20.62
2023-04-22T14:34:30.942Z,20.73
2023-04-22T14:36:59.481Z,20.82
2023-04-22T14:39:28.800Z,20.99
2023-04-22T14:41:57.969Z,21.11
2023-04-22T14:44:26.040Z,21.13
2023-04-22T14:46:53.965Z,20.92
2023-04-22T14:49:21.870Z,20.60
2023-04-22T14:51:49.829Z,20.53
2023-04-22T14:54:17.779Z,20.59
2023-04-22T14:56:47.559Z,20.61
2023-04-22T14:59:15.524Z,20.54
2023-04-22T15:01:43.651Z,20.32
2023-04-22T15:04:13.586Z,20.21
2023-04-22T15:06:41.664Z,20.01
2023-04-22T15:09:09.615Z,19.81
2023-04-22T15:11:37.580Z,19.61
2023-04-22T15:14:06.866Z,19.54
2023-04-22T15:16:34.845Z,19.32
2023-04-22T15:19:02.832Z,19.08
2023-04-22T15:21:30.790Z,18.80
2023-04-22T15:23:58.737Z,18.64
2023-04-22T15:26:26.682Z,18.40
2023-04-22T15:28:54.638Z,18.19
2023-04-22T15:31:24.037Z,18.07
2023-04-22T15:33:52.068Z,17.98
2023-04-22T15:36:21.659Z,17.75
2023-04-22T15:38:49.721Z,17.60
2023-04-22T15:41:17.646Z,17.47
2023-04-22T15:43:45.700Z,17.36
2023-04-22T15:46:14.681Z,17.27
2023-04-22T15:48:47.187Z,17.11
2023-04-22T15:51:15.207Z,17.02
2023-04-22T15:53:45.356Z,16.97
2023-04-22T15:56:13.346Z,16.86
2023-04-22T15:58:41.334Z,16.76
2023-04-22T16:01:18.935Z,16.70
2023-04-22T16:03:49.371Z,16.60
2023-04-22T16:06:18.120Z,16.53
2023-04-22T16:08:46.489Z,16.48
2023-04-22T16:11:15.296Z,16.36
2023-04-22T16:13:43.247Z,16.26
2023-04-22T16:16:11.321Z,16.21
2023-04-22T16:18:39.982Z,16.14
2023-04-22T16:21:11.380Z,16.07
2023-04-22T16:23:39.332Z,15.97
2023-04-22T16:26:07.278Z,15.88
2023-04-22T16:28:35.262Z,15.80
2023-04-22T16:31:03.414Z,15.70
2023-04-22T16:33:31.412Z,15.60
2023-04-22T16:35:59.724Z,15.56
2023-04-22T16:38:29.008Z,15.47
2023-04-22T16:40:56.963Z,15.38
2023-04-22T16:43:24.939Z,15.28
2023-04-22T16:45:52.986Z,15.08
2023-04-22T16:48:20.965Z,14.93
2023-04-22T16:50:49.016Z,14.89
2023-04-22T16:53:16.961Z,14.86
2023-04-22T16:55:46.303Z,14.75
2023-04-22T16:58:14.272Z,14.63
2023-04-22T17:00:42.254Z,14.47
2023-04-22T17:03:12.051Z,14.36
2023-04-22T17:05:40.285Z,14.22
2023-04-22T17:08:08.609Z,14.09
2023-04-22T17:10:41.394Z,13.95
2023-04-22T17:13:10.756Z,13.80
2023-04-22T17:15:38.807Z,13.64
2023-04-22T17:18:07.957Z,13.51
2023-04-22T17:20:36.011Z,13.37
2023-04-22T17:23:04.090Z,13.21
2023-04-22T17:25:32.165Z,13.09
2023-04-22T17:28:00.158Z,12.97
2023-04-22T17:30:29.440Z,12.86
2023-04-22T17:32:57.488Z,12.77
2023-04-22T17:35:25.508Z,12.65
2023-04-22T17:37:53.766Z,12.55
2023-04-22T17:40:22.016Z,12.45
2023-04-22T17:42:50.017Z,12.37
2023-04-22T17:45:17.943Z,12.27
2023-04-22T17:47:48.562Z,12.17
2023-04-22T17:50:16.639Z,12.07
2023-04-22T17:52:44.675Z,12.00
2023-04-22T17:55:12.610Z,11.91
2023-04-22T17:57:40.909Z,11.85
2023-04-22T18:00:11.126Z,11.80
2023-04-22T18:02:39.216Z,11.73
2023-04-22T18:05:09.364Z,11.68
2023-04-22T18:07:37.293Z,11.63
2023-04-22T18:10:05.832Z,11.60
2023-04-22T18:12:33.766Z,11.57
2023-04-22T18:15:01.747Z,11.53
2023-04-22T18:17:29.667Z,11.50
2023-04-22T18:20:06.331Z,11.45
2023-04-22T18:22:43.737Z,11.41
2023-04-22T18:25:11.662Z,11.35
2023-04-22T18:27:39.644Z,11.18
2023-04-22T18:30:08.617Z,10.99
2023-04-22T18:32:37.336Z,10.80
2023-04-22T18:35:06.135Z,10.90
2023-04-22T18:37:34.813Z,10.99
2023-04-22T18:40:05.851Z,11.09
2023-04-22T18:42:33.763Z,11.11
2023-04-22T18:45:04.242Z,11.21
2023-04-22T18:47:32.657Z,11.23
2023-04-22T18:50:00.956Z,11.32
2023-04-22T18:52:28.914Z,11.38
2023-04-22T18:54:56.901Z,11.46
2023-04-22T18:57:26.553Z,11.46
2023-04-22T18:59:55.038Z,11.55
2023-04-22T19:02:23.063Z,11.56
2023-04-22T19:04:51.249Z,11.57
2023-04-22T19:07:19.234Z,11.56
2023-04-22T19:09:47.159Z,11.53
2023-04-22T19:12:16.729Z,11.52
2023-04-22T19:14:47.193Z,11.50
2023-04-22T19:17:15.158Z,11.47
2023-04-22T19:19:43.506Z,11.48
2023-04-22T19:22:12.476Z,11.43
2023-04-22T19:24:40.421Z,11.43
2023-04-22T19:27:12.488Z,11.41
2023-04-22T19:29:41.576Z,11.41
2023-04-22T19:32:11.643Z,11.15
2023-04-22T19:34:39.650Z,11.09
2023-04-22T19:37:08.340Z,11.10
2023-04-22T19:39:36.733Z,11.04
2023-04-22T19:42:04.835Z,11.07
2023-04-22T19:44:32.810Z,11.17
2023-04-22T19:47:00.922Z,11.23
2023-04-22T19:49:32.486Z,11.20
2023-04-22T19:52:00.406Z,11.24
2023-04-22T19:54:28.974Z,11.30
2023-04-22T19:56:57.997Z,11.36
2023-04-22T19:59:28.056Z,11.30
2023-04-22T20:01:56.420Z,11.40
2023-04-22T20:04:25.219Z,11.43
2023-04-22T20:06:54.676Z,11.38
2023-04-22T20:09:22.665Z,11.36
2023-04-22T20:11:50.612Z,11.34
2023-04-22T20:14:18.567Z,11.35
2023-04-22T20:16:47.902Z,11.31
2023-04-22T20:19:16.217Z,11.29
2023-04-22T20:21:44.158Z,11.25
2023-04-22T20:24:19.054Z,11.19
2023-04-22T20:26:47.897Z,11.13
2023-04-22T20:29:15.884Z,11.07
2023-04-22T20:31:44.163Z,11.01
2023-04-22T20:34:13.132Z,10.91
2023-04-22T20:36:41.077Z,10.89
2023-04-22T20:39:10.794Z,10.85
2023-04-22T20:41:41.015Z,10.86
2023-04-22T20:44:09.302Z,10.83
2023-04-22T20:46:37.889Z,10.78
2023-04-22T20:49:05.919Z,10.75
2023-04-22T20:51:33.897Z,10.69
2023-04-22T20:54:01.825Z,10.69
2023-04-22T20:56:29.814Z,10.67
2023-04-22T20:58:59.163Z,10.65
2023-04-22T21:01:27.521Z,10.57
2023-04-22T21:03:57.714Z,10.53
2023-04-22T21:06:26.348Z,10.40
2023-04-22T21:08:54.358Z,10.36
2023-04-22T21:11:22.782Z,10.35
2023-04-22T21:13:51.043Z,10.31
2023-04-22T21:16:20.698Z,10.25
2023-04-22T21:18:48.695Z,10.22
2023-04-22T21:21:17.178Z,10.17
2023-04-22T21:23:45.644Z,10.14
2023-04-22T21:26:13.601Z,10.13
2023-04-22T21:28:42.137Z,10.12
2023-04-22T21:31:11.090Z,10.10
2023-04-22T21:33:40.452Z,10.10
2023-04-22T21:36:08.472Z,10.08
2023-04-22T21:38:36.409Z,10.01
2023-04-22T21:41:04.338Z,9.94
2023-04-22T21:43:32.399Z,9.87
2023-04-22T21:46:01.034Z,9.74
2023-04-22T21:48:29.045Z,9.62
2023-04-22T21:50:58.352Z,9.52
2023-04-22T21:53:26.351Z,9.56
2023-04-22T21:55:54.297Z,9.53
2023-04-22T21:58:22.325Z,9.51
2023-04-22T22:00:50.302Z,9.39
2023-04-22T22:03:18.322Z,9.36
2023-04-22T22:05:46.349Z,9.32
2023-04-22T22:08:15.678Z,9.18
2023-04-22T22:10:44.014Z,9.15
2023-04-22T22:13:11.958Z,9.09
2023-04-22T22:15:39.924Z,9.16
2023-04-22T22:18:07.900Z,9.18
2023-04-22T22:20:36.656Z,9.20
2023-04-22T22:23:04.593Z,9.21
2023-04-22T22:25:33.890Z,9.21
2023-04-22T22:28:01.910Z,9.19
2023-04-22T22:30:30.086Z,9.13
2023-04-22T22:32:58.078Z,9.09
2023-04-22T22:35:25.988Z,9.08
2023-04-22T22:37:53.902Z,9.07
2023-04-22T22:40:21.921Z,9.02
2023-04-22T22:42:51.290Z,9.00
2023-04-22T22:45:19.245Z,8.95
2023-04-22T22:47:47.232Z,8.92
2023-04-22T22:50:15.600Z,8.87
2023-04-22T22:52:43.574Z,8.82
2023-04-22T22:55:11.929Z,8.78
2023-04-22T22:57:39.861Z,8.77
2023-04-22T23:00:11.967Z,8.81
2023-04-22T23:02:40.000Z,8.85
2023-04-22T23:05:10.920Z,8.88
2023-04-22T23:07:39.002Z,8.85
2023-04-22T23:10:08.298Z,8.84
2023-04-22T23:12:36.436Z,8.83
2023-04-22T23:15:04.710Z,8.80
2023-04-22T23:17:34.101Z,8.80
2023-04-22T23:20:02.412Z,8.75
2023-04-22T23:22:30.814Z,8.74
2023-04-22T23:24:59.226Z,8.71
2023-04-22T23:27:27.743Z,8.67
2023-04-22T23:29:56.194Z,8.64
2023-04-22T23:32:26.552Z,8.64
2023-04-22T23:34:56.085Z,8.61
2023-04-22T23:37:24.032Z,8.53
2023-04-22T23:39:51.995Z,8.56
2023-04-22T23:42:19.952Z,8.56
2023-04-22T23:44:47.928Z,8.53
2023-04-22T23:47:15.867Z,8.52
2023-04-22T23:49:43.784Z,8.48
2023-04-22T23:52:14.152Z,8.43
2023-04-22T23:54:44.686Z,8.41
2023-04-22T23:57:13.250Z,8.33
2023-04-22T23:59:41.722Z,8.34
